Wollongong, Australia
Current Conditions -  °F | °C
As of 3:00 AM on Tuesday 27 Jan 2015 (Local Time) from YSSY Reporting Station
Rain Showers Rain Showers  
Wind Chill: 19°   Ceiling: 4500
Heat Index: 19°   Visibility: 5mi
Dew Point: 18°   Wind: 8mph
Humidity: 94%   Direction: 90°E
Pressure: 29.88"   Gusts: NA
Location:  34.43°S, 150.9°E
Report Text: YSSY 261600Z 09007KT 8000 -SHRA FEW005 SCT015 BKN045 19/18 Q1012 FM1645 18010KT 9999 -SHRA FEW008 BKN025 TEMPO 1645/1900 4000 SHRA BKN008
Loading
Personal Weather Stations






























Interactive Weather Map New forecast layout! Learn more

10-Day Weather Forecast

Advertisements
Track Severe Weather on mobile